createdAt,value
2019-05-23T00:02:05.984Z,99070.65
2019-05-23T00:04:44.501Z,99069.61
2019-05-23T00:07:21.029Z,99070.81
2019-05-23T00:09:56.729Z,99074.50
2019-05-23T00:12:47.706Z,99068.08
2019-05-23T00:15:29.548Z,99076.50
2019-05-23T00:18:04.223Z,99068.55
2019-05-23T00:20:38.782Z,99072.00
2019-05-23T00:23:14.515Z,99078.56
2019-05-23T00:25:49.972Z,99072.68
2019-05-23T00:28:25.501Z,99082.73
2019-05-23T00:31:12.456Z,99068.92
2019-05-23T00:33:46.155Z,99072.73
2019-05-23T00:36:20.179Z,99082.91
2019-05-23T00:38:56.268Z,99080.75
2019-05-23T00:41:33.239Z,99082.65
2019-05-23T00:44:08.846Z,99079.11
2019-05-23T00:46:44.077Z,99083.31
2019-05-23T00:49:19.456Z,99081.81
2019-05-23T00:51:54.385Z,99080.37
2019-05-23T00:54:28.929Z,99084.71
2019-05-23T00:57:02.947Z,99089.00
2019-05-23T00:59:37.507Z,99083.02
2019-05-23T01:02:12.074Z,99092.25
2019-05-23T01:04:46.609Z,99093.04
2019-05-23T01:07:21.857Z,99096.16
2019-05-23T01:09:55.850Z,99092.58
2019-05-23T01:12:29.982Z,99095.34
2019-05-23T01:15:04.787Z,99096.02
2019-05-23T01:17:39.309Z,99091.69
2019-05-23T01:20:14.003Z,99093.16
2019-05-23T01:22:49.582Z,99093.30
2019-05-23T01:25:26.764Z,99114.45
2019-05-23T01:28:01.548Z,99100.10
2019-05-23T01:30:41.437Z,99106.49
2019-05-23T01:33:17.507Z,99102.95
2019-05-23T01:35:52.652Z,99103.08
2019-05-23T01:38:27.489Z,99111.30
2019-05-23T01:41:02.918Z,99113.16
2019-05-23T01:43:38.877Z,99122.70
2019-05-23T01:46:14.611Z,99119.66
2019-05-23T01:48:49.776Z,99125.46
2019-05-23T01:51:25.036Z,99120.89
2019-05-23T01:53:59.729Z,99119.34
2019-05-23T01:56:34.263Z,99125.84
2019-05-23T01:59:10.316Z,99130.55
2019-05-23T02:01:44.747Z,99121.97
2019-05-23T02:04:19.164Z,99124.06
2019-05-23T02:06:53.293Z,99126.67
2019-05-23T02:09:27.416Z,99140.34
2019-05-23T02:12:02.013Z,99136.16
2019-05-23T02:14:35.592Z,99153.31
2019-05-23T02:17:11.381Z,99143.42
2019-05-23T02:19:46.024Z,99149.50
2019-05-23T02:22:19.997Z,99151.74
2019-05-23T02:24:54.342Z,99141.62
2019-05-23T02:27:28.139Z,99144.69
2019-05-23T02:30:03.063Z,99143.97
2019-05-23T02:32:37.585Z,99149.31
2019-05-23T02:35:12.493Z,99151.19
2019-05-23T02:38:07.643Z,99153.83
2019-05-23T02:41:00.304Z,99148.39
2019-05-23T02:43:35.644Z,99155.17
2019-05-23T02:46:16.850Z,99160.73
2019-05-23T02:48:52.036Z,99152.14
2019-05-23T02:51:33.339Z,99161.13
2019-05-23T02:54:11.036Z,99151.71
2019-05-23T02:56:46.946Z,99148.60
2019-05-23T02:59:39.568Z,99155.32
2019-05-23T03:02:48.859Z,99164.86
2019-05-23T03:05:26.781Z,99156.11
2019-05-23T03:08:01.286Z,99159.09
2019-05-23T03:11:15.694Z,99164.13
2019-05-23T03:13:50.245Z,99164.48
2019-05-23T03:16:25.651Z,99159.73
2019-05-23T03:19:04.037Z,99174.90
2019-05-23T03:21:37.739Z,99172.88
2019-05-23T03:24:12.329Z,99170.03
2019-05-23T03:27:13.629Z,99170.74
2019-05-23T03:29:47.438Z,99170.08
2019-05-23T03:32:40.251Z,99171.98
2019-05-23T03:35:32.491Z,99175.55
2019-05-23T03:38:08.458Z,99172.50
2019-05-23T03:40:41.867Z,99173.70
2019-05-23T03:43:16.755Z,99174.05
2019-05-23T03:45:53.443Z,99171.86
2019-05-23T03:48:30.370Z,99173.59
2019-05-23T03:51:03.918Z,99177.59
2019-05-23T03:53:39.481Z,99177.61
2019-05-23T03:56:14.134Z,99180.77
2019-05-23T03:58:48.510Z,99181.39
2019-05-23T04:01:24.485Z,99193.81
2019-05-23T04:03:59.425Z,99189.78
2019-05-23T04:06:33.872Z,99193.55
2019-05-23T04:09:08.525Z,99192.30
2019-05-23T04:11:42.743Z,99191.88
2019-05-23T04:14:16.397Z,99191.07
2019-05-23T04:16:51.318Z,99194.44
2019-05-23T04:19:25.237Z,99197.09
2019-05-23T04:21:59.410Z,99202.47
2019-05-23T04:24:33.866Z,99202.39
2019-05-23T04:27:07.795Z,99203.30
2019-05-23T04:29:42.202Z,99205.53
2019-05-23T04:32:17.235Z,99205.89
2019-05-23T04:34:51.038Z,99209.67
2019-05-23T04:37:25.292Z,99215.61
2019-05-23T04:39:58.983Z,99223.52
2019-05-23T04:42:32.965Z,99214.89
2019-05-23T04:45:06.349Z,99219.12
2019-05-23T04:47:41.324Z,99229.42
2019-05-23T04:50:15.218Z,99232.39
2019-05-23T04:52:49.116Z,99229.59
2019-05-23T04:55:23.133Z,99243.02
2019-05-23T04:57:56.972Z,99228.44
2019-05-23T05:00:32.201Z,99239.50
2019-05-23T05:03:08.037Z,99236.01
2019-05-23T05:05:41.979Z,99234.46
2019-05-23T05:08:15.594Z,99241.86
2019-05-23T05:10:50.293Z,99248.14
2019-05-23T05:13:25.301Z,99250.15
2019-05-23T05:15:59.017Z,99265.34
2019-05-23T05:18:33.341Z,99255.95
2019-05-23T05:21:06.262Z,99258.97
2019-05-23T05:23:41.068Z,99258.91
2019-05-23T05:26:22.614Z,99263.84
2019-05-23T05:28:56.881Z,99259.23
2019-05-23T05:31:31.789Z,99271.09
2019-05-23T05:34:05.047Z,99272.36
2019-05-23T05:36:38.811Z,99280.83
2019-05-23T05:39:13.603Z,99273.23
2019-05-23T05:41:48.033Z,99278.97
2019-05-23T05:44:22.238Z,99279.71
2019-05-23T05:46:56.484Z,99280.80
2019-05-23T05:49:30.785Z,99282.52
2019-05-23T05:52:06.233Z,99288.19
2019-05-23T05:54:39.902Z,99289.55
2019-05-23T05:57:13.512Z,99291.56
2019-05-23T05:59:46.829Z,99294.11
2019-05-23T06:02:20.328Z,99291.48
2019-05-23T06:04:53.815Z,99295.19
2019-05-23T06:07:32.859Z,99293.42
2019-05-23T06:10:09.849Z,99298.60
2019-05-23T06:12:43.429Z,99300.98
2019-05-23T06:15:18.496Z,99300.84
2019-05-23T06:17:52.761Z,99304.86
2019-05-23T06:20:27.906Z,99305.84
2019-05-23T06:23:03.377Z,99309.00
2019-05-23T06:25:37.481Z,99315.96
2019-05-23T06:28:12.226Z,99319.80
2019-05-23T06:30:46.665Z,99321.13
2019-05-23T06:33:23.751Z,99320.44
2019-05-23T06:35:58.351Z,99332.48
2019-05-23T06:38:33.174Z,99331.86
2019-05-23T06:41:08.585Z,99326.50
2019-05-23T06:43:43.790Z,99337.49
2019-05-23T06:46:18.204Z,99340.73
2019-05-23T06:48:52.467Z,99335.30
2019-05-23T06:51:27.076Z,99342.14
2019-05-23T06:54:00.830Z,99342.41
2019-05-23T06:56:33.764Z,99343.31
2019-05-23T06:59:06.751Z,99342.91
2019-05-23T07:01:40.193Z,99350.04
2019-05-23T07:04:13.555Z,99354.33
2019-05-23T07:06:46.501Z,99349.30
2019-05-23T07:09:22.625Z,99357.39
2019-05-23T07:11:59.712Z,99365.27
2019-05-23T07:14:33.337Z,99362.91
2019-05-23T07:17:08.050Z,99356.89
2019-05-23T07:19:41.259Z,99362.59
2019-05-23T07:22:18.316Z,99360.31
2019-05-23T07:24:57.965Z,99361.20
2019-05-23T07:27:30.008Z,99362.06
2019-05-23T07:30:04.892Z,99363.05
2019-05-23T07:32:39.434Z,99378.45
2019-05-23T07:35:13.179Z,99364.77
2019-05-23T07:37:47.313Z,99371.85
2019-05-23T07:40:21.926Z,99371.39
2019-05-23T07:42:56.051Z,99378.95
2019-05-23T07:45:39.950Z,99373.73
2019-05-23T07:48:14.966Z,99375.95
2019-05-23T07:50:48.833Z,99381.19
2019-05-23T07:53:32.702Z,99377.53
2019-05-23T07:56:07.440Z,99393.36
2019-05-23T07:58:41.600Z,99386.98
2019-05-23T08:01:17.814Z,99388.73
2019-05-23T08:03:54.456Z,99403.22
2019-05-23T08:06:29.533Z,99403.34
2019-05-23T08:09:05.369Z,99401.52
2019-05-23T08:11:39.385Z,99408.12
2019-05-23T08:14:13.831Z,99406.87
2019-05-23T08:16:47.369Z,99413.58
2019-05-23T08:19:21.618Z,99404.23
2019-05-23T08:21:54.486Z,99410.34
2019-05-23T08:24:27.375Z,99412.48
2019-05-23T08:27:02.444Z,99415.59
2019-05-23T08:29:35.427Z,99420.78
2019-05-23T08:32:07.511Z,99419.55
2019-05-23T08:34:42.683Z,99423.59
2019-05-23T08:37:15.710Z,99418.40
2019-05-23T08:39:49.283Z,99421.67
2019-05-23T08:42:23.128Z,99428.87
2019-05-23T08:44:56.591Z,99426.92
2019-05-23T08:47:29.423Z,99424.19
2019-05-23T08:50:04.131Z,99428.73
2019-05-23T08:52:37.701Z,99427.97
2019-05-23T08:55:22.911Z,99427.19
2019-05-23T08:57:58.919Z,99434.50
2019-05-23T09:00:35.788Z,99436.55
2019-05-23T09:03:11.151Z,99444.33
2019-05-23T09:05:45.018Z,99448.81
2019-05-23T09:08:20.124Z,99455.53
2019-05-23T09:10:54.725Z,99447.66
2019-05-23T09:13:28.410Z,99452.70
2019-05-23T09:16:02.358Z,99449.13
2019-05-23T09:18:36.728Z,99451.77
2019-05-23T09:21:10.131Z,99459.53
2019-05-23T09:23:42.329Z,99458.13
2019-05-23T09:26:15.517Z,99458.15
2019-05-23T09:28:48.751Z,99454.55
2019-05-23T09:31:22.589Z,99453.89
2019-05-23T09:33:55.323Z,99461.46
2019-05-23T09:36:28.699Z,99460.57
2019-05-23T09:39:02.921Z,99460.37
2019-05-23T09:41:37.955Z,99461.44
2019-05-23T09:44:11.320Z,99466.83
2019-05-23T09:46:44.651Z,99453.84
2019-05-23T09:49:18.107Z,99458.41
2019-05-23T09:51:55.824Z,99466.13
2019-05-23T09:54:27.773Z,99469.99
2019-05-23T09:57:01.375Z,99476.33
2019-05-23T09:59:35.566Z,99479.33
2019-05-23T10:02:09.521Z,99486.92
2019-05-23T10:04:43.589Z,99480.34
2019-05-23T10:07:17.891Z,99483.28
2019-05-23T10:09:51.672Z,99490.59
2019-05-23T10:12:25.363Z,99486.45
2019-05-23T10:14:59.555Z,99488.58
2019-05-23T10:17:33.281Z,99491.47
2019-05-23T10:20:06.705Z,99489.31
2019-05-23T10:22:40.593Z,99493.56
2019-05-23T10:25:14.580Z,99484.52
2019-05-23T10:27:48.793Z,99491.66
2019-05-23T10:30:24.063Z,99488.88
2019-05-23T10:32:57.479Z,99484.93
2019-05-23T10:35:32.364Z,99478.93
2019-05-23T10:38:05.664Z,99484.42
2019-05-23T10:40:39.221Z,99489.27
2019-05-23T10:43:14.094Z,99484.15
2019-05-23T10:45:47.816Z,99481.41
2019-05-23T10:48:22.045Z,99480.75
2019-05-23T10:50:56.247Z,99491.30
2019-05-23T10:53:29.983Z,99495.45
2019-05-23T10:56:03.946Z,99484.27
2019-05-23T10:58:38.203Z,99491.94
2019-05-23T11:01:13.436Z,99492.19
2019-05-23T11:03:47.196Z,99494.45
2019-05-23T11:06:21.677Z,99489.70
2019-05-23T11:08:55.182Z,99495.89
2019-05-23T11:11:29.903Z,99492.66
2019-05-23T11:14:08.399Z,99498.38
2019-05-23T11:16:41.686Z,99495.99
2019-05-23T11:19:15.933Z,99511.66
2019-05-23T11:21:49.582Z,99492.38
2019-05-23T11:24:23.995Z,99491.23
2019-05-23T11:26:57.930Z,99497.03
2019-05-23T11:29:32.542Z,99495.94
2019-05-23T11:32:07.697Z,99498.23
2019-05-23T11:34:41.415Z,99503.31
2019-05-23T11:37:15.130Z,99500.81
2019-05-23T11:39:50.894Z,99502.59
2019-05-23T11:42:26.000Z,99503.35
2019-05-23T11:44:59.808Z,99496.91
2019-05-23T11:47:34.437Z,99495.04
2019-05-23T11:50:06.909Z,99492.66
2019-05-23T11:52:40.605Z,99499.05
2019-05-23T11:55:13.862Z,99505.77
2019-05-23T11:57:48.160Z,99494.70
2019-05-23T12:00:30.169Z,99498.13
2019-05-23T12:03:04.312Z,99483.73
2019-05-23T12:05:36.755Z,99490.48
2019-05-23T12:08:09.452Z,99493.31
2019-05-23T12:10:42.043Z,99494.83
2019-05-23T12:13:15.262Z,99490.20
2019-05-23T12:15:51.367Z,99492.97
2019-05-23T12:18:24.650Z,99496.72
2019-05-23T12:20:59.863Z,99497.05
2019-05-23T12:23:32.827Z,99494.48
2019-05-23T12:26:06.316Z,99501.05
2019-05-23T12:28:38.835Z,99500.23
2019-05-23T12:31:11.778Z,99500.77
2019-05-23T12:33:44.161Z,99497.27
2019-05-23T12:36:17.460Z,99506.47
2019-05-23T12:38:50.416Z,99504.88
2019-05-23T12:41:23.738Z,99511.84
2019-05-23T12:43:55.703Z,99503.44
2019-05-23T12:46:29.432Z,99505.49
2019-05-23T12:49:09.064Z,99507.65
2019-05-23T12:51:41.582Z,99510.70
2019-05-23T12:54:14.636Z,99504.44
2019-05-23T12:56:49.002Z,99510.91
2019-05-23T12:59:20.864Z,99506.80
2019-05-23T13:01:54.948Z,99509.80
2019-05-23T13:04:27.467Z,99506.89
2019-05-23T13:07:00.428Z,99507.78
2019-05-23T13:09:32.903Z,99505.30
2019-05-23T13:12:06.458Z,99508.35
2019-05-23T13:14:39.570Z,99502.16
2019-05-23T13:17:12.027Z,99504.20
2019-05-23T13:19:44.961Z,99498.91
2019-05-23T13:22:18.542Z,99499.84
2019-05-23T13:24:53.423Z,99494.35
2019-05-23T13:27:26.412Z,99500.73
2019-05-23T13:29:59.845Z,99501.19
2019-05-23T13:32:32.492Z,99498.83
2019-05-23T13:35:05.169Z,99493.93
2019-05-23T13:37:52.306Z,99501.53
2019-05-23T13:40:13.809Z,99495.59
2019-05-23T13:42:47.313Z,99497.75
2019-05-23T13:45:19.783Z,99496.31
2019-05-23T13:47:53.783Z,99500.83
2019-05-23T13:50:26.424Z,99500.43
2019-05-23T13:52:58.841Z,99504.69
2019-05-23T13:55:32.757Z,99509.23
2019-05-23T13:58:06.766Z,99513.87
2019-05-23T14:00:40.552Z,99512.61
2019-05-23T14:03:14.705Z,99515.86
2019-05-23T14:05:48.605Z,99512.31
2019-05-23T14:08:21.308Z,99510.44
2019-05-23T14:10:54.870Z,99510.63
2019-05-23T14:13:28.872Z,99513.66
2019-05-23T14:16:03.433Z,99508.13
2019-05-23T14:18:47.717Z,99515.11
2019-05-23T14:21:22.040Z,99514.80
2019-05-23T14:23:56.331Z,99515.58
2019-05-23T14:26:32.112Z,99517.17
2019-05-23T14:29:07.792Z,99514.52
2019-05-23T14:31:47.615Z,99517.55
2019-05-23T14:34:20.897Z,99507.73
2019-05-23T14:37:09.198Z,99504.11
2019-05-23T14:40:10.962Z,99502.66
2019-05-23T14:43:11.306Z,99502.23
2019-05-23T14:46:06.040Z,99502.43
2019-05-23T14:49:07.930Z,99509.88
2019-05-23T14:52:03.014Z,99506.20
2019-05-23T14:54:41.065Z,99501.54
2019-05-23T14:57:15.575Z,99499.77
2019-05-23T14:59:49.285Z,99499.70
2019-05-23T15:02:24.279Z,99496.60
2019-05-23T15:04:58.150Z,99500.09
2019-05-23T15:07:31.911Z,99497.00
2019-05-23T15:10:05.290Z,99500.69
2019-05-23T15:12:38.991Z,99500.96
2019-05-23T15:15:12.664Z,99495.86
2019-05-23T15:17:46.897Z,99498.78
2019-05-23T15:20:21.951Z,99499.32
2019-05-23T15:22:59.688Z,99495.16
2019-05-23T15:25:31.559Z,99497.25
2019-05-23T15:28:05.892Z,99502.03
2019-05-23T15:30:40.070Z,99508.09
2019-05-23T15:33:14.324Z,99498.49
2019-05-23T15:35:48.491Z,99501.48
2019-05-23T15:38:22.737Z,99506.95
2019-05-23T15:40:56.949Z,99509.86
2019-05-23T15:43:31.036Z,99508.52
2019-05-23T15:46:05.193Z,99506.11
2019-05-23T15:48:38.374Z,99507.72
2019-05-23T15:51:13.929Z,99501.13
2019-05-23T15:53:54.473Z,99496.08
2019-05-23T15:56:56.347Z,99499.50
2019-05-23T15:59:55.448Z,99498.51
2019-05-23T16:02:33.307Z,99493.22
2019-05-23T16:05:08.698Z,99491.84
2019-05-23T16:07:42.363Z,99492.02
2019-05-23T16:10:17.633Z,99492.01
2019-05-23T16:12:51.526Z,99496.33
2019-05-23T16:15:25.570Z,99499.23
2019-05-23T16:18:00.670Z,99498.02
2019-05-23T16:20:34.229Z,99499.76
2019-05-23T16:23:08.509Z,99500.31
2019-05-23T16:25:43.136Z,99497.08
2019-05-23T16:28:16.420Z,99494.78
2019-05-23T16:30:50.625Z,99497.27
2019-05-23T16:33:24.008Z,99498.93
2019-05-23T16:35:58.171Z,99502.41
2019-05-23T16:38:32.348Z,99501.05
2019-05-23T16:41:06.544Z,99496.50
2019-05-23T16:43:39.755Z,99493.13
2019-05-23T16:46:13.490Z,99488.00
2019-05-23T16:48:47.385Z,99488.25
2019-05-23T16:51:21.123Z,99491.00
2019-05-23T16:53:55.473Z,99493.74
2019-05-23T16:56:36.815Z,99493.48
2019-05-23T16:59:41.408Z,99490.61
2019-05-23T17:02:48.799Z,99489.26
2019-05-23T17:05:39.823Z,99494.77
2019-05-23T17:08:41.296Z,99496.74
2019-05-23T17:11:50.979Z,99498.73
2019-05-23T17:14:39.391Z,99500.81
2019-05-23T17:17:56.672Z,99499.27
2019-05-23T17:20:30.498Z,99499.39
2019-05-23T17:23:28.450Z,99498.23
2019-05-23T17:26:08.060Z,99502.84
2019-05-23T17:28:44.134Z,99502.11
2019-05-23T17:31:19.990Z,99505.53
2019-05-23T17:33:52.797Z,99501.37
2019-05-23T17:36:26.690Z,99500.53
2019-05-23T17:38:59.644Z,99505.05
2019-05-23T17:41:32.408Z,99506.61
2019-05-23T17:44:04.955Z,99504.12
2019-05-23T17:46:37.945Z,99499.52
2019-05-23T17:49:11.184Z,99493.88
2019-05-23T17:51:44.186Z,99492.45
2019-05-23T17:54:18.689Z,99487.75
2019-05-23T17:56:52.371Z,99485.19
2019-05-23T17:59:25.219Z,99484.41
2019-05-23T18:01:57.768Z,99496.42
2019-05-23T18:04:30.821Z,99492.68
2019-05-23T18:07:02.770Z,99489.62
2019-05-23T18:09:36.251Z,99489.48
2019-05-23T18:12:09.516Z,99486.14
2019-05-23T18:14:42.839Z,99490.70
2019-05-23T18:17:15.329Z,99490.98
2019-05-23T18:19:47.384Z,99485.02
2019-05-23T18:22:21.053Z,99481.18
2019-05-23T18:24:59.489Z,99478.82
2019-05-23T18:27:29.356Z,99485.00
2019-05-23T18:30:04.540Z,99487.43
2019-05-23T18:32:37.935Z,99486.09
2019-05-23T18:35:12.757Z,99487.78
2019-05-23T18:37:46.581Z,99493.23
2019-05-23T18:40:21.217Z,99499.16
2019-05-23T18:42:54.558Z,99499.36
2019-05-23T18:45:27.765Z,99505.93
2019-05-23T18:48:02.338Z,99503.60
2019-05-23T18:50:36.252Z,99508.20
2019-05-23T18:53:10.641Z,99509.50
2019-05-23T18:55:45.084Z,99504.59
2019-05-23T18:58:19.975Z,99505.44
2019-05-23T19:01:14.684Z,99507.41
2019-05-23T19:03:48.512Z,99509.33
2019-05-23T19:06:21.866Z,99514.26
2019-05-23T19:08:55.122Z,99518.33
2019-05-23T19:11:28.905Z,99523.44
2019-05-23T19:14:04.858Z,99525.88
2019-05-23T19:16:39.457Z,99525.04
2019-05-23T19:19:14.221Z,99526.39
2019-05-23T19:21:48.296Z,99523.91
2019-05-23T19:24:21.239Z,99525.38
2019-05-23T19:26:55.446Z,99518.09
2019-05-23T19:29:29.370Z,99516.94
2019-05-23T19:32:02.603Z,99521.06
2019-05-23T19:34:36.086Z,99520.98
2019-05-23T19:37:10.885Z,99515.29
2019-05-23T19:39:45.619Z,99522.95
2019-05-23T19:42:19.065Z,99523.66
2019-05-23T19:44:52.538Z,99525.34
2019-05-23T19:47:26.132Z,99530.56
2019-05-23T19:49:59.063Z,99529.26
2019-05-23T19:52:31.532Z,99524.64
2019-05-23T19:55:06.187Z,99527.36
2019-05-23T19:57:38.740Z,99528.46
2019-05-23T20:00:32.190Z,99526.70
2019-05-23T20:03:05.256Z,99528.23
2019-05-23T20:05:40.038Z,99532.64
2019-05-23T20:08:13.330Z,99535.45
2019-05-23T20:10:46.332Z,99536.45
2019-05-23T20:13:19.982Z,99538.81
2019-05-23T20:15:52.785Z,99536.91
2019-05-23T20:18:25.025Z,99532.84
2019-05-23T20:20:58.172Z,99532.70
2019-05-23T20:23:30.218Z,99531.70
2019-05-23T20:26:07.480Z,99525.62
2019-05-23T20:28:40.006Z,99527.45
2019-05-23T20:31:12.569Z,99529.75
2019-05-23T20:33:44.996Z,99522.57
2019-05-23T20:36:17.443Z,99521.92
2019-05-23T20:38:51.451Z,99523.13
2019-05-23T20:41:24.096Z,99519.71
2019-05-23T20:43:56.990Z,99517.27
2019-05-23T20:46:29.801Z,99519.99
2019-05-23T20:49:01.699Z,99518.03
2019-05-23T20:51:35.472Z,99522.94
2019-05-23T20:54:08.384Z,99522.88
2019-05-23T20:56:41.908Z,99525.29
2019-05-23T20:59:16.288Z,99529.66
2019-05-23T21:01:50.534Z,99524.95
2019-05-23T21:04:23.391Z,99525.99
2019-05-23T21:06:57.737Z,99521.67
2019-05-23T21:09:29.767Z,99527.39
2019-05-23T21:12:04.163Z,99526.39
2019-05-23T21:14:36.947Z,99531.30
2019-05-23T21:17:10.302Z,99530.67
2019-05-23T21:19:44.458Z,99533.65
2019-05-23T21:22:17.000Z,99534.30
2019-05-23T21:24:49.016Z,99538.97
2019-05-23T21:27:21.937Z,99536.93
2019-05-23T21:29:54.790Z,99536.87
2019-05-23T21:32:27.972Z,99538.50
2019-05-23T21:35:00.761Z,99535.97
2019-05-23T21:37:34.450Z,99535.55
2019-05-23T21:40:07.977Z,99537.17
2019-05-23T21:42:47.709Z,99535.60
2019-05-23T21:45:15.386Z,99534.94
2019-05-23T21:47:48.823Z,99533.92
2019-05-23T21:50:21.846Z,99530.00
2019-05-23T21:52:55.224Z,99529.16
2019-05-23T21:55:41.084Z,99527.76
2019-05-23T21:58:14.931Z,99528.97
2019-05-23T22:01:41.971Z,99531.70
2019-05-23T22:04:34.134Z,99527.78
2019-05-23T22:07:11.551Z,99529.74
2019-05-23T22:09:44.951Z,99526.43
2019-05-23T22:12:19.127Z,99524.86
2019-05-23T22:14:52.882Z,99520.97
2019-05-23T22:17:28.233Z,99524.53
2019-05-23T22:20:02.630Z,99519.29
2019-05-23T22:22:36.720Z,99525.23
2019-05-23T22:25:09.703Z,99521.53
2019-05-23T22:27:44.868Z,99519.80
2019-05-23T22:30:19.263Z,99518.70
2019-05-23T22:32:54.586Z,99522.94
2019-05-23T22:35:28.955Z,99520.74
2019-05-23T22:38:03.053Z,99516.88
2019-05-23T22:40:38.665Z,99511.95
2019-05-23T22:43:20.962Z,99512.63
2019-05-23T22:45:49.863Z,99505.39
2019-05-23T22:48:24.234Z,99497.66
2019-05-23T22:50:57.932Z,99501.50
2019-05-23T22:53:31.998Z,99497.83
2019-05-23T22:56:06.267Z,99496.68
2019-05-23T22:58:39.970Z,99492.48
2019-05-23T23:01:13.625Z,99489.11
2019-05-23T23:03:47.553Z,99493.48
2019-05-23T23:06:21.740Z,99503.23
2019-05-23T23:08:56.010Z,99494.16
2019-05-23T23:11:29.276Z,99498.36
2019-05-23T23:14:03.114Z,99499.98
2019-05-23T23:16:36.887Z,99503.57
2019-05-23T23:19:10.313Z,99502.20
2019-05-23T23:21:44.387Z,99508.59
2019-05-23T23:24:18.618Z,99505.73
2019-05-23T23:26:53.044Z,99504.95
2019-05-23T23:29:26.671Z,99506.96
2019-05-23T23:32:03.771Z,99504.38
2019-05-23T23:34:35.997Z,99494.41
2019-05-23T23:37:09.603Z,99495.08
2019-05-23T23:39:43.633Z,99501.55
2019-05-23T23:42:17.738Z,99503.91
2019-05-23T23:44:49.685Z,99504.02
2019-05-23T23:47:40.289Z,99500.91
2019-05-23T23:50:30.411Z,99499.00
2019-05-23T23:53:21.489Z,99495.58
2019-05-23T23:56:12.499Z,99499.39
2019-05-23T23:58:44.384Z,99499.48
